Latest Weather Observations for Hamilton Island

IDQ60801

Issued at 9:35 am EST Wednesday 3 September 2014 (issued every 30 minutes, with the page automatically refreshed every 10 minutes)

About weather observations | Map of weather stations | Latest weather observations for QLD | Other Formats
Station Details ID: 033106 Name: HAMILTON ISLAND AIRPORT Lat: -20.37 Lon: 148.95 Height: 58.66 m
Data from the previous 72 hours. | See also: Recent months at Hamilton Island
Date/Time
EST
Temp
°C
App
Temp
°C
Dew
Point
Rel
Hum
%
Delta-T
°C
Wind Press
QNH
hPa
Press
MSL
hPa
Rain
since 9 am
mm
Dir
 
Spd
km/h
Gust
km/h
Spd
kts
Gust
kts
03/09:30am 20.0 12.1 9.3 50 5.7 SSE 41 48 22 26 1018.2 - 0.0
03/09:00am 19.8 11.2 8.2 47 6.0 SSE 43 50 23 27 1017.8 1017.6 0.0
03/08:30am 20.0 10.5 6.7 42 6.7 SSE 46 57 25 31 1017.6 - 0.0
03/08:00am 20.6 12.9 7.2 42 6.9 SSE 37 46 20 25 1017.4 - 0.0
03/07:30am 20.5 13.4 6.4 40 7.1 S 33 43 18 23 1017.2 - 0.0
03/07:00am 20.3 13.1 5.9 39 7.2 S 33 44 18 24 1016.8 - 0.0
03/06:30am 19.9 12.6 7.3 44 6.4 S 35 43 19 23 1016.4 - 0.0
03/06:00am 20.1 12.6 6.4 41 6.9 S 35 43 19 23 1016.0 1015.8 0.0
03/05:30am 20.5 12.6 6.4 40 7.1 S 37 44 20 24 1015.6 - 0.0
03/05:00am 20.9 14.0 7.2 41 7.0 S 33 41 18 22 1015.3 - 0.0
03/04:30am 20.9 14.9 8.5 45 6.5 S 30 43 16 23 1015.0 - 0.0
03/04:27am 21.1 15.0 8.4 44 6.7 S 30 43 16 23 1015.0 - 0.0
03/04:00am 20.8 20.0 14.0 65 3.9 SSW 11 20 6 11 1014.9 - 0.0
03/03:30am 19.8 20.2 16.3 80 2.1 WNW 9 11 5 6 1014.8 - 0.0
03/03:00am 20.2 19.4 17.0 82 1.9 NW 17 20 9 11 1014.9 1014.7 0.0
03/02:30am 20.1 18.7 16.9 82 1.9 NNW 20 24 11 13 1014.8 - 0.0
03/02:00am 20.4 17.2 17.2 82 2.0 NNW 30 33 16 18 1014.8 - 0.0
03/01:30am 20.5 16.9 17.3 82 2.0 NNW 32 39 17 21 1014.8 - 0.0
03/01:00am 20.5 16.7 17.3 82 2.0 NW 33 41 18 22 1014.8 - 0.0
03/12:30am 20.7 16.7 17.5 82 2.0 NW 35 46 19 25 1014.9 - 0.0
03/12:00am 20.9 15.1 16.9 78 2.4 NW 43 50 23 27 1014.9 1014.7 0.0
 
Date/Time
EST
Temp
°C
App
Temp
°C
Dew
Point
Rel
Hum
%
Delta-T
°C
Wind Press
QNH
hPa
Press
MSL
hPa
Rain
since 9 am
mm
Dir
 
Spd
km/h
Gust
km/h
Spd
kts
Gust
kts
02/11:43pm 20.8 17.2 17.2 80 2.2 NW 32 50 17 27 1015.1 - 0.0
02/11:30pm 20.8 15.7 17.6 82 2.0 NW 41 50 22 27 1014.9 - 0.0
02/11:00pm 20.8 16.4 17.6 82 2.0 NNW 37 46 20 25 1014.7 - 0.0
02/10:30pm 20.8 16.7 17.4 81 2.1 NNW 35 46 19 25 1014.8 - 0.0
02/10:00pm 20.9 16.5 17.5 81 2.1 NNW 37 44 20 24 1014.5 - 0.0
02/09:30pm 20.9 17.2 17.5 81 2.1 NNW 33 43 18 23 1014.7 - 0.0
02/09:00pm 20.9 17.4 17.5 81 2.1 NNW 32 39 17 21 1014.8 1014.6 0.0
02/08:30pm 21.0 17.0 17.6 81 2.1 NNW 35 44 19 24 1014.7 - 0.0
02/08:00pm 21.1 17.0 17.3 79 2.3 NNW 35 41 19 22 1014.7 - 0.0
02/07:30pm 21.1 17.1 17.5 80 2.2 NW 35 41 19 22 1014.6 - 0.0
02/07:00pm 21.0 17.6 17.6 81 2.1 NNW 32 39 17 21 1014.2 - 0.0
02/06:30pm 21.0 17.6 17.6 81 2.1 NNW 32 37 17 20 1013.8 - 0.0
02/06:00pm 21.1 17.5 17.3 79 2.3 NW 32 39 17 21 1013.7 1013.4 0.0
02/05:30pm 21.6 17.4 17.2 76 2.7 NNW 35 39 19 21 1013.5 - 0.0
02/05:00pm 22.1 17.6 16.4 70 3.5 NNW 35 43 19 23 1013.6 - 0.0
02/04:30pm 22.7 19.1 16.3 67 3.9 NW 30 39 16 21 1013.3 - 0.0
02/04:00pm 23.0 19.1 16.5 67 4.0 NNW 32 39 17 21 1013.1 - 0.0
02/03:30pm 23.2 20.3 16.0 64 4.4 NNW 26 32 14 17 1013.4 - 0.0
02/03:00pm 23.9 21.8 17.2 66 4.2 NNW 24 30 13 16 1013.6 1013.3 0.0
02/02:30pm 23.8 21.9 16.8 65 4.3 NNW 22 28 12 15 1014.1 - 0.0
02/02:00pm 23.4 21.0 16.4 64 4.3 NW 24 32 13 17 1014.5 - 0.0
02/01:30pm 24.6 23.1 16.3 60 5.1 NW 19 24 10 13 1015.1 - 0.0
02/01:00pm 24.2 22.1 15.1 56 5.5 NNW 20 26 11 14 1015.5 - 0.0
02/12:30pm 23.8 20.9 13.9 54 5.8 NNW 22 26 12 14 1016.0 - 0.0
02/12:00pm 23.5 20.7 14.2 56 5.5 NNW 22 28 12 15 1016.5 1016.3 0.0
02/11:30am 23.3 20.6 14.6 58 5.2 NNW 22 26 12 14 1017.1 - 0.0
02/11:00am 23.2 20.9 14.7 58 5.0 NNW 20 24 11 13 1017.8 - 0.0
02/10:30am 23.1 20.9 14.4 58 5.1 NNW 19 22 10 12 1018.1 - 0.0
02/10:00am 22.6 20.8 14.4 60 4.8 NW 17 20 9 11 1018.5 - 0.0
02/09:30am 22.2 21.3 14.8 63 4.4 NNW 13 17 7 9 1018.7 - 0.0
02/09:00am 21.6 21.4 15.7 69 3.5 NW 11 13 6 7 1018.8 1018.6 0.0
02/08:30am 20.8 21.7 16.0 74 2.9 NNW 6 9 3 5 1018.8 - 0.0
02/08:00am 19.8 22.0 16.4 81 2.0 CALM 0 0 0 0 1018.6 - 0.0
02/07:30am 19.1 20.8 16.1 83 1.8 WSW 2 7 1 4 1018.4 - 0.0
02/07:00am 18.5 20.5 16.1 86 1.4 CALM 0 0 0 0 1018.4 - 0.0
02/06:30am 18.0 20.2 16.5 91 0.9 CALM 0 0 0 0 1018.2 - 0.0
02/06:00am 17.8 19.9 16.3 91 0.9 CALM 0 0 0 0 1017.8 1017.6 0.0
02/05:30am 17.9 20.1 16.4 91 0.9 CALM 0 0 0 0 1017.7 - 0.0
02/05:00am 18.0 19.0 16.3 90 1.0 WNW 6 7 3 4 1017.7 - 0.0
02/04:30am 18.0 18.8 16.3 90 1.0 NW 7 7 4 4 1017.6 - 0.0
02/04:00am 18.0 18.7 16.2 89 1.1 NW 7 9 4 5 1017.5 - 0.0
02/03:30am 18.1 19.0 16.1 88 1.2 WNW 6 7 3 4 1017.7 - 0.0
02/03:00am 18.1 18.8 16.1 88 1.2 WNW 7 7 4 4 1017.8 1017.6 0.0
02/02:30am 18.2 18.4 15.8 86 1.4 NW 9 9 5 5 1018.0 - 0.0
02/02:00am 18.1 17.9 15.7 86 1.4 NNW 11 11 6 6 1018.1 - 0.0
02/01:30am 18.1 18.3 15.7 86 1.4 NNW 9 11 5 6 1018.5 - 0.0
02/01:00am 18.4 19.3 16.0 86 1.4 W 6 7 3 4 1018.8 - 0.0
02/12:30am 18.4 20.1 15.1 81 1.9 CALM 0 0 0 0 1018.6 - 0.0
02/12:00am 18.3 19.5 15.9 86 1.4 NNW 4 7 2 4 1018.6 1018.4 0.0
 
Date/Time
EST
Temp
°C
App
Temp
°C
Dew
Point
Rel
Hum
%
Delta-T
°C
Wind Press
QNH
hPa
Press
MSL
hPa
Rain
since 9 am
mm
Dir
 
Spd
km/h
Gust
km/h
Spd
kts
Gust
kts
01/11:30pm 18.3 19.8 15.7 85 1.5 NE 2 7 1 4 1018.7 - 0.0
01/11:00pm 18.4 20.2 15.5 83 1.7 CALM 0 2 0 1 1018.8 - 0.0
01/10:30pm 18.5 19.4 15.0 80 2.0 NNE 4 9 2 5 1018.7 - 0.0
01/10:00pm 18.5 19.1 15.4 82 1.8 N 6 7 3 4 1018.6 - 0.0
01/09:30pm 19.5 19.5 14.3 72 3.0 NE 7 11 4 6 1018.7 - 0.0
01/09:00pm 19.4 19.1 14.4 73 2.9 NE 9 11 5 6 1018.7 1018.5 0.0
01/08:30pm 19.4 20.6 14.9 75 2.6 NNE 2 9 1 5 1018.7 - 0.0
01/08:00pm 19.8 19.0 14.0 69 3.4 ENE 11 13 6 7 1018.3 - 0.0
01/07:30pm 20.0 18.8 13.9 68 3.5 ENE 13 17 7 9 1017.9 - 0.0
01/07:00pm 20.0 18.8 14.1 69 3.4 E 13 17 7 9 1017.7 - 0.0
01/06:30pm 19.9 18.7 14.0 69 3.4 E 13 17 7 9 1017.5 - 0.0
01/06:00pm 20.3 18.0 14.2 68 3.5 E 19 20 10 11 1017.3 1017.1 0.0
01/05:30pm 20.5 18.4 13.7 65 3.9 E 17 20 9 11 1016.9 - 0.0
01/05:00pm 20.8 17.7 13.5 63 4.2 E 22 26 12 14 1016.6 - 0.0
01/04:30pm 20.9 18.4 13.6 63 4.2 E 19 24 10 13 1016.7 - 0.0
01/04:00pm 21.1 19.3 15.4 70 3.4 ESE 19 22 10 12 1016.7 - 0.0
01/03:30pm 21.3 19.2 14.7 66 3.9 ESE 19 22 10 12 1016.9 - 0.0
01/03:00pm 21.6 19.5 15.2 67 3.8 E 20 24 11 13 1016.9 1016.7 0.0
01/02:30pm 21.9 19.8 14.8 64 4.2 ESE 19 22 10 12 1017.1 - 0.0
01/02:00pm 22.7 21.4 15.8 65 4.2 ESE 17 20 9 11 1017.6 - 0.0
01/01:30pm 21.8 21.2 15.6 68 3.7 SSE 13 17 7 9 1018.1 - 0.0
01/01:00pm 22.1 21.3 16.1 69 3.6 SSE 15 19 8 10 1018.3 - 0.0
01/12:30pm 21.5 20.4 15.3 68 3.7 SSE 15 17 8 9 1018.8 - 0.0
01/12:00pm 21.6 20.4 15.0 66 3.9 SSE 15 19 8 10 1019.2 1019.0 0.0
01/11:30am 21.5 20.4 15.3 68 3.7 SSE 15 19 8 10 1019.7 - 0.0
01/11:00am 21.6 20.6 15.7 69 3.5 SSE 15 20 8 11 1019.7 - 0.0
01/10:30am 21.4 19.6 15.5 69 3.5 SSE 19 24 10 13 1019.8 - 0.0
01/10:00am 21.3 19.5 15.6 70 3.4 SSE 19 22 10 12 1020.1 - 0.0
01/09:30am 21.0 19.2 15.5 71 3.3 SSE 19 24 10 13 1020.2 - 0.0
01/09:00am 20.8 18.9 15.8 73 3.0 SSE 20 24 11 13 1020.3 1020.0 0.0
01/08:30am 20.6 18.8 15.4 72 3.1 SSE 19 24 10 13 1019.8 - 0.0
01/08:00am 20.0 17.9 14.8 72 3.0 SSE 19 24 10 13 1019.4 - 0.0
01/07:30am 20.3 18.5 15.5 74 2.9 SSE 19 22 10 12 1019.1 - 0.0
01/07:00am 19.7 20.0 13.4 67 3.6 ENE 4 11 2 6 1018.8 - 0.0
01/06:30am 19.2 18.3 12.5 65 3.8 E 9 15 5 8 1018.4 - 0.0
01/06:00am 19.1 17.3 12.1 64 3.9 E 13 17 7 9 1018.0 1017.8 0.0
01/05:30am 19.1 17.4 12.6 66 3.7 E 13 17 7 9 1017.7 - 0.0
01/05:00am 19.0 16.8 12.0 64 3.9 E 15 19 8 10 1017.5 - 0.0
01/04:30am 19.1 17.4 12.6 66 3.7 E 13 17 7 9 1017.5 - 0.0
01/04:00am 18.5 17.0 12.0 66 3.6 E 11 15 6 8 1017.7 - 0.0
01/03:30am 18.9 17.4 11.9 64 3.9 E 11 15 6 8 1017.6 - 0.0
01/03:00am 19.3 18.4 12.6 65 3.8 E 9 13 5 7 1017.7 1017.5 0.0
01/02:30am 19.0 17.9 11.8 63 4.0 E 9 15 5 8 1017.8 - 0.0
01/02:00am 19.3 17.3 11.6 61 4.3 E 13 17 7 9 1017.9 - 0.0
01/01:30am 19.1 17.7 12.1 64 3.9 E 11 15 6 8 1017.7 - 0.0
01/01:00am 18.6 17.1 11.9 65 3.7 ENE 11 15 6 8 1017.9 - 0.0
01/12:30am 19.2 17.3 11.7 62 4.1 ENE 13 17 7 9 1018.2 - 0.0
01/12:00am 18.8 17.7 11.9 64 3.8 ENE 9 13 5 7 1018.3 1018.1 0.0
 
Date/Time
EST
Temp
°C
App
Temp
°C
Dew
Point
Rel
Hum
%
Delta-T
°C
Wind Press
QNH
hPa
Press
MSL
hPa
Rain
since 9 am
mm
Dir
 
Spd
km/h
Gust
km/h
Spd
kts
Gust
kts
31/11:30pm 19.1 18.0 11.9 63 4.0 ENE 9 13 5 7 1018.3 - 0.0
31/11:00pm 19.1 17.4 12.4 65 3.7 ENE 13 15 7 8 1018.4 - 0.0
31/10:30pm 19.1 17.3 12.1 64 3.9 ENE 13 17 7 9 1018.6 - 0.0
31/10:00pm 19.3 17.5 12.1 63 4.0 ENE 13 17 7 9 1018.7 - 0.0
31/09:30pm 19.5 16.5 12.0 62 4.2 ENE 19 22 10 12 1018.4 - 0.0
31/09:00pm 19.8 16.7 12.1 61 4.3 ENE 20 26 11 14 1018.4 1018.3 0.0
31/08:30pm 20.0 16.4 11.7 59 4.6 ENE 22 32 12 17 1018.2 - 0.0
31/08:00pm 20.1 16.6 12.1 60 4.5 E 22 30 12 16 1018.0 - 0.0
31/07:30pm 20.0 16.4 11.7 59 4.6 E 22 28 12 15 1017.6 - 0.0
31/07:00pm 20.3 16.8 12.3 60 4.5 E 22 30 12 16 1017.4 - 0.0
31/06:30pm 20.3 16.7 11.8 58 4.7 E 22 30 12 16 1016.9 - 0.0
31/06:00pm 20.3 16.3 13.0 63 4.1 E 26 30 14 16 1016.6 1016.5 0.0
31/05:30pm 20.4 17.4 13.8 66 3.8 E 22 28 12 15 1016.4 - 0.0
31/05:00pm 20.4 17.2 14.3 68 3.6 ESE 24 28 13 15 1016.3 - 0.0
31/04:30pm 20.5 17.4 13.5 64 4.0 ESE 22 26 12 14 1016.2 - 0.0
31/04:00pm 20.8 17.5 14.0 65 3.9 ESE 24 28 13 15 1016.0 - 0.0
31/03:30pm 21.3 18.6 14.5 65 4.0 E 22 28 12 15 1016.0 - 0.0
31/03:00pm 21.5 18.2 12.9 58 4.9 ESE 22 26 12 14 1016.3 1016.2 0.0
31/02:30pm 22.3 19.8 13.4 57 5.1 ESE 19 22 10 12 1016.5 - 0.0
31/02:00pm 21.9 20.0 15.3 66 3.9 SSE 19 22 10 12 1017.0 - 0.0
31/01:30pm 21.9 20.1 16.0 69 3.6 SSE 20 24 11 13 1017.2 - 0.0
31/01:00pm 21.9 20.4 16.4 71 3.3 SSE 19 24 10 13 1017.5 - 0.0
31/12:30pm 21.6 19.8 16.1 71 3.3 SSE 20 24 11 13 1018.0 - 0.0
31/12:00pm 21.5 19.9 16.0 71 3.3 SSE 19 24 10 13 1018.4 1018.3 0.0
31/11:30am 21.6 20.1 16.3 72 3.2 SSE 19 22 10 12 1018.5 - 0.0
31/11:00am 21.5 19.9 16.0 71 3.3 SSE 19 22 10 12 1018.9 - 0.0
31/10:30am 21.3 19.7 16.0 72 3.2 SSE 19 22 10 12 1019.2 - 0.0
31/10:00am 21.3 20.1 16.0 72 3.2 SSE 17 20 9 11 1019.5 - 0.0

Other Formats:

Comma delimited format used in spreadsheet applications
http://www.bom.gov.au/fwo/IDQ60801/IDQ60801.94368.axf

JavaScript Object Notation format (JSON) in row-major order
http://www.bom.gov.au/fwo/IDQ60801/IDQ60801.94368.json